createdAt,value
2022-10-01T00:01:33.311Z,97498.75
2022-10-01T00:04:01.747Z,97491.69
2022-10-01T00:06:32.460Z,97506.03
2022-10-01T00:09:00.488Z,97499.50
2022-10-01T00:11:28.484Z,97497.34
2022-10-01T00:13:56.573Z,97502.59
2022-10-01T00:16:28.571Z,97498.31
2022-10-01T00:18:57.522Z,97501.59
2022-10-01T00:21:28.562Z,97502.84
2022-10-01T00:24:06.366Z,97503.63
2022-10-01T00:26:37.743Z,97495.16
2022-10-01T00:29:12.964Z,97490.69
2022-10-01T00:31:41.391Z,97488.66
2022-10-01T00:34:13.060Z,97504.06
2022-10-01T00:36:43.907Z,97500.53
2022-10-01T00:39:13.296Z,97496.34
2022-10-01T00:41:42.095Z,97501.28
2022-10-01T00:44:33.150Z,97500.69
2022-10-01T00:47:25.739Z,97498.09
2022-10-01T00:50:00.290Z,97494.69
2022-10-01T00:52:32.408Z,97497.00
2022-10-01T00:55:14.249Z,97494.56
2022-10-01T00:57:43.572Z,97491.09
2022-10-01T01:00:14.825Z,97493.84
2022-10-01T01:02:46.371Z,97496.44
2022-10-01T01:05:15.244Z,97492.47
2022-10-01T01:07:46.249Z,97496.25
2022-10-01T01:10:17.022Z,97498.97
2022-10-01T01:12:56.808Z,97492.97
2022-10-01T01:15:30.821Z,97481.16
2022-10-01T01:18:10.438Z,97495.59
2022-10-01T01:21:02.493Z,97493.78
2022-10-01T01:23:52.693Z,97498.88
2022-10-01T01:26:35.349Z,97500.84
2022-10-01T01:29:12.042Z,97505.84
2022-10-01T01:31:45.216Z,97509.41
2022-10-01T01:34:17.375Z,97502.63
2022-10-01T01:36:50.921Z,97510.38
2022-10-01T01:39:21.488Z,97514.09
2022-10-01T01:41:55.406Z,97503.34
2022-10-01T01:44:28.806Z,97519.09
2022-10-01T01:46:58.657Z,97509.88
2022-10-01T01:49:30.031Z,97512.63
2022-10-01T01:52:14.166Z,97516.41
2022-10-01T01:54:46.388Z,97524.47
2022-10-01T01:57:18.516Z,97516.34
2022-10-01T01:59:46.835Z,97519.84
2022-10-01T02:02:31.224Z,97530.97
2022-10-01T02:05:03.188Z,97523.75
2022-10-01T02:07:55.592Z,97524.53
2022-10-01T02:10:44.350Z,97522.81
2022-10-01T02:13:19.174Z,97523.31
2022-10-01T02:16:22.340Z,97534.91
2022-10-01T02:18:50.390Z,97541.03
2022-10-01T02:21:21.550Z,97537.97
2022-10-01T02:24:01.999Z,97535.16
2022-10-01T02:26:32.056Z,97544.56
2022-10-01T02:29:08.154Z,97552.16
2022-10-01T02:31:36.675Z,97553.25
2022-10-01T02:34:12.376Z,97548.19
2022-10-01T02:36:41.909Z,97550.59
2022-10-01T02:39:11.306Z,97552.66
2022-10-01T02:41:39.600Z,97554.78
2022-10-01T02:44:22.202Z,97561.34
2022-10-01T02:47:05.130Z,97555.50
2022-10-01T02:49:33.407Z,97555.97
2022-10-01T02:52:22.884Z,97558.25
2022-10-01T02:55:01.512Z,97553.94
2022-10-01T02:57:32.672Z,97557.06
2022-10-01T03:00:10.583Z,97569.44
2022-10-01T03:02:38.694Z,97565.53
2022-10-01T03:05:07.800Z,97566.59
2022-10-01T03:07:36.360Z,97569.09
2022-10-01T03:10:11.401Z,97565.44
2022-10-01T03:12:39.568Z,97574.50
2022-10-01T03:15:11.070Z,97580.03
2022-10-01T03:17:41.817Z,97584.75
2022-10-01T03:20:10.749Z,97586.16
2022-10-01T03:22:41.133Z,97593.09
2022-10-01T03:25:09.658Z,97592.88
2022-10-01T03:27:40.555Z,97595.59
2022-10-01T03:30:09.139Z,97592.19
2022-10-01T03:32:37.206Z,97601.50
2022-10-01T03:35:05.620Z,97606.66
2022-10-01T03:37:33.701Z,97606.97
2022-10-01T03:40:06.927Z,97603.69
2022-10-01T03:42:34.946Z,97607.53
2022-10-01T03:45:05.302Z,97608.06
2022-10-01T03:47:33.313Z,97599.50
2022-10-01T03:50:01.428Z,97600.69
2022-10-01T03:52:29.489Z,97596.78
2022-10-01T03:54:57.470Z,97614.63
2022-10-01T03:57:25.469Z,97605.16
2022-10-01T03:59:53.523Z,97613.31
2022-10-01T04:02:21.695Z,97607.38
2022-10-01T04:04:49.760Z,97615.06
2022-10-01T04:07:17.859Z,97617.75
2022-10-01T04:09:45.867Z,97624.88
2022-10-01T04:12:13.968Z,97614.84
2022-10-01T04:14:42.037Z,97611.91
2022-10-01T04:17:12.958Z,97619.16
2022-10-01T04:19:40.961Z,97621.56
2022-10-01T04:22:09.045Z,97628.66
2022-10-01T04:24:37.053Z,97620.09
2022-10-01T04:27:05.077Z,97628.75
2022-10-01T04:29:35.733Z,97621.88
2022-10-01T04:32:09.898Z,97617.44
2022-10-01T04:34:37.985Z,97625.84
2022-10-01T04:37:06.020Z,97626.25
2022-10-01T04:39:34.033Z,97622.72
2022-10-01T04:42:07.658Z,97625.94
2022-10-01T04:44:38.224Z,97628.03
2022-10-01T04:47:06.905Z,97633.88
2022-10-01T04:49:35.081Z,97633.19
2022-10-01T04:52:06.128Z,97627.34
2022-10-01T04:54:36.764Z,97632.69
2022-10-01T04:57:07.217Z,97634.03
2022-10-01T04:59:38.129Z,97640.72
2022-10-01T05:02:06.190Z,97637.41
2022-10-01T05:04:34.239Z,97638.06
2022-10-01T05:07:04.851Z,97634.88
2022-10-01T05:09:32.908Z,97628.31
2022-10-01T05:12:03.966Z,97627.28
2022-10-01T05:14:31.954Z,97631.31
2022-10-01T05:16:59.970Z,97629.31
2022-10-01T05:19:28.193Z,97632.03
2022-10-01T05:21:56.590Z,97635.81
2022-10-01T05:24:24.712Z,97631.19
2022-10-01T05:26:55.093Z,97632.28
2022-10-01T05:29:25.819Z,97637.06
2022-10-01T05:31:53.943Z,97646.72
2022-10-01T05:34:25.011Z,97630.63
2022-10-01T05:36:56.062Z,97647.41
2022-10-01T05:39:24.202Z,97649.09
2022-10-01T05:41:52.657Z,97648.91
2022-10-01T05:44:20.671Z,97649.41
2022-10-01T05:46:48.765Z,97645.13
2022-10-01T05:49:17.044Z,97648.53
2022-10-01T05:51:45.788Z,97643.97
2022-10-01T05:54:14.277Z,97656.44
2022-10-01T05:56:42.328Z,97655.94
2022-10-01T05:59:10.420Z,97654.13
2022-10-01T06:01:38.650Z,97656.03
2022-10-01T06:04:06.784Z,97670.56
2022-10-01T06:06:34.806Z,97659.44
2022-10-01T06:09:02.793Z,97672.44
2022-10-01T06:11:36.632Z,97670.38
2022-10-01T06:14:04.466Z,97673.84
2022-10-01T06:16:32.602Z,97678.19
2022-10-01T06:19:04.621Z,97680.59
2022-10-01T06:21:32.916Z,97684.66
2022-10-01T06:24:03.943Z,97690.56
2022-10-01T06:26:37.220Z,97693.59
2022-10-01T06:29:05.181Z,97689.97
2022-10-01T06:31:36.056Z,97686.28
2022-10-01T06:34:04.311Z,97693.88
2022-10-01T06:36:35.341Z,97697.78
2022-10-01T06:39:08.225Z,97683.88
2022-10-01T06:41:37.309Z,97681.63
2022-10-01T06:44:05.420Z,97693.53
2022-10-01T06:46:33.413Z,97690.47
2022-10-01T06:49:01.602Z,97683.56
2022-10-01T06:51:29.631Z,97689.53
2022-10-01T06:53:58.727Z,97684.97
2022-10-01T06:56:26.802Z,97698.72
2022-10-01T06:58:54.810Z,97700.22
2022-10-01T07:01:22.875Z,97701.72
2022-10-01T07:03:53.247Z,97706.03
2022-10-01T07:06:21.462Z,97707.63
2022-10-01T07:08:52.665Z,97712.03
2022-10-01T07:11:21.121Z,97711.72
2022-10-01T07:13:54.347Z,97715.25
2022-10-01T07:16:22.810Z,97711.19
2022-10-01T07:18:50.866Z,97716.16
2022-10-01T07:21:18.859Z,97720.03
2022-10-01T07:23:48.609Z,97723.81
2022-10-01T07:26:16.640Z,97725.75
2022-10-01T07:28:44.704Z,97728.44
2022-10-01T07:31:15.599Z,97735.66
2022-10-01T07:33:46.286Z,97734.41
2022-10-01T07:36:14.438Z,97739.66
2022-10-01T07:38:42.446Z,97735.94
2022-10-01T07:41:10.882Z,97741.03
2022-10-01T07:43:38.870Z,97740.03
2022-10-01T07:46:09.337Z,97741.19
2022-10-01T07:48:37.413Z,97738.88
2022-10-01T07:51:08.212Z,97743.13
2022-10-01T07:53:38.864Z,97742.00
2022-10-01T07:56:07.112Z,97747.78
2022-10-01T07:58:35.135Z,97744.34
2022-10-01T08:01:08.991Z,97746.66
2022-10-01T08:03:39.947Z,97747.81
2022-10-01T08:06:11.973Z,97745.19
2022-10-01T08:08:39.973Z,97747.50
2022-10-01T08:11:08.365Z,97743.69
2022-10-01T08:13:36.537Z,97748.28
2022-10-01T08:16:08.636Z,97750.56
2022-10-01T08:18:37.538Z,97752.13
2022-10-01T08:21:05.669Z,97752.09
2022-10-01T08:23:36.249Z,97752.50
2022-10-01T08:26:09.120Z,97758.59
2022-10-01T08:28:37.198Z,97755.19
2022-10-01T08:31:10.573Z,97755.91
2022-10-01T08:33:39.072Z,97754.78
2022-10-01T08:36:07.996Z,97760.94
2022-10-01T08:38:37.267Z,97759.00
2022-10-01T08:41:23.137Z,97758.59
2022-10-01T08:43:54.450Z,97770.47
2022-10-01T08:46:30.617Z,97768.94
2022-10-01T08:49:28.984Z,97764.72
2022-10-01T08:52:04.025Z,97775.78
2022-10-01T08:54:46.039Z,97778.13
2022-10-01T08:57:24.772Z,97783.09
2022-10-01T08:59:59.173Z,97781.94
2022-10-01T09:02:30.464Z,97779.66
2022-10-01T09:05:07.266Z,97779.66
2022-10-01T09:08:12.358Z,97787.69
2022-10-01T09:10:48.023Z,97791.13
2022-10-01T09:13:36.206Z,97787.31
2022-10-01T09:16:11.814Z,97788.81
2022-10-01T09:19:04.348Z,97788.44
2022-10-01T09:22:00.779Z,97788.44
2022-10-01T09:24:44.689Z,97798.34
2022-10-01T09:27:19.187Z,97791.50
2022-10-01T09:29:53.534Z,97797.97
2022-10-01T09:32:25.434Z,97800.97
2022-10-01T09:34:54.280Z,97802.81
2022-10-01T09:37:30.288Z,97802.03
2022-10-01T09:40:12.458Z,97813.41
2022-10-01T09:42:40.525Z,97810.00
2022-10-01T09:45:14.413Z,97808.09
2022-10-01T09:47:48.059Z,97815.34
2022-10-01T09:50:41.633Z,97805.41
2022-10-01T09:53:20.980Z,97823.81
2022-10-01T09:56:00.476Z,97817.00
2022-10-01T09:58:32.701Z,97820.53
2022-10-01T10:01:00.954Z,97811.56
2022-10-01T10:03:30.965Z,97817.03
2022-10-01T10:06:00.535Z,97807.56
2022-10-01T10:08:32.121Z,97803.78
2022-10-01T10:11:09.928Z,97811.56
2022-10-01T10:13:44.074Z,97804.38
2022-10-01T10:16:21.965Z,97803.16
2022-10-01T10:18:55.955Z,97804.75
2022-10-01T10:21:35.049Z,97813.53
2022-10-01T10:24:07.533Z,97804.34
2022-10-01T10:26:35.733Z,97809.28
2022-10-01T10:29:05.372Z,97807.38
2022-10-01T10:31:51.711Z,97805.88
2022-10-01T10:34:34.385Z,97801.25
2022-10-01T10:37:05.729Z,97801.25
2022-10-01T10:39:41.644Z,97809.94
2022-10-01T10:42:16.775Z,97800.09
2022-10-01T10:44:47.686Z,97806.22
2022-10-01T10:47:19.019Z,97805.38
2022-10-01T10:49:58.311Z,97814.06
2022-10-01T10:52:32.041Z,97812.25
2022-10-01T10:55:23.261Z,97822.84
2022-10-01T10:57:57.481Z,97820.91
2022-10-01T11:00:29.778Z,97829.59
2022-10-01T11:03:05.822Z,97819.81
2022-10-01T11:05:40.384Z,97820.97
2022-10-01T11:08:17.666Z,97828.28
2022-10-01T11:11:07.832Z,97823.41
2022-10-01T11:13:45.016Z,97822.56
2022-10-01T11:16:42.957Z,97825.97
2022-10-01T11:19:33.727Z,97826.56
2022-10-01T11:22:20.105Z,97830.50
2022-10-01T11:25:18.502Z,97835.16
2022-10-01T11:28:04.780Z,97835.88
2022-10-01T11:30:59.564Z,97843.03
2022-10-01T11:33:59.861Z,97846.19
2022-10-01T11:36:44.373Z,97845.88
2022-10-01T11:39:15.870Z,97849.22
2022-10-01T11:41:43.835Z,97856.41
2022-10-01T11:44:31.913Z,97854.81
2022-10-01T11:47:08.614Z,97856.34
2022-10-01T11:49:58.403Z,97858.63
2022-10-01T11:52:44.357Z,97861.34
2022-10-01T11:55:44.209Z,97860.41
2022-10-01T11:58:39.143Z,97862.47
2022-10-01T12:01:14.477Z,97853.59
2022-10-01T12:03:55.846Z,97861.72
2022-10-01T12:06:52.709Z,97869.31
2022-10-01T12:09:45.619Z,97860.78
2022-10-01T12:12:37.037Z,97865.59
2022-10-01T12:15:10.730Z,97869.28
2022-10-01T12:18:05.213Z,97864.75
2022-10-01T12:21:08.386Z,97867.16
2022-10-01T12:23:44.363Z,97872.91
2022-10-01T12:26:14.955Z,97872.50
2022-10-01T12:29:00.461Z,97871.03
2022-10-01T12:31:34.799Z,97871.69
2022-10-01T12:34:24.302Z,97866.81
2022-10-01T12:37:27.638Z,97869.13
2022-10-01T12:39:55.622Z,97871.75
2022-10-01T12:42:51.422Z,97867.59
2022-10-01T12:45:39.326Z,97866.56
2022-10-01T12:48:43.355Z,97872.28
2022-10-01T12:51:28.553Z,97877.28
2022-10-01T12:54:24.604Z,97872.69
2022-10-01T12:57:04.254Z,97869.22
2022-10-01T13:00:03.937Z,97879.47
2022-10-01T13:02:34.548Z,97882.91
2022-10-01T13:05:35.005Z,97873.66
2022-10-01T13:08:17.647Z,97882.25
2022-10-01T13:10:56.276Z,97884.94
2022-10-01T13:13:34.788Z,97893.50
2022-10-01T13:16:25.881Z,97891.47
2022-10-01T13:19:20.785Z,97890.88
2022-10-01T13:21:54.253Z,97897.13
2022-10-01T13:24:39.696Z,97899.72
2022-10-01T13:27:31.636Z,97890.97
2022-10-01T13:30:20.046Z,97901.34
2022-10-01T13:32:57.043Z,97899.00
2022-10-01T13:35:39.496Z,97890.97
2022-10-01T13:38:18.296Z,97910.25
2022-10-01T13:40:59.160Z,97914.50
2022-10-01T13:43:27.257Z,97905.59
2022-10-01T13:45:56.572Z,97910.72
2022-10-01T13:48:28.249Z,97900.31
2022-10-01T13:51:07.633Z,97919.75
2022-10-01T13:53:46.229Z,97918.59
2022-10-01T13:56:26.843Z,97921.31
2022-10-01T13:58:55.142Z,97918.44
2022-10-01T14:01:24.326Z,97919.53
2022-10-01T14:04:20.095Z,97925.88
2022-10-01T14:07:03.124Z,97919.13
2022-10-01T14:09:44.865Z,97925.69
2022-10-01T14:12:21.743Z,97912.44
2022-10-01T14:14:55.163Z,97926.22
2022-10-01T14:17:29.728Z,97927.78
2022-10-01T14:19:58.887Z,97923.16
2022-10-01T14:22:54.182Z,97931.59
2022-10-01T14:25:53.507Z,97931.66
2022-10-01T14:28:27.691Z,97934.63
2022-10-01T14:31:07.858Z,97935.28
2022-10-01T14:34:01.702Z,97925.47
2022-10-01T14:36:35.604Z,97929.25
2022-10-01T14:39:06.588Z,97934.94
2022-10-01T14:41:35.611Z,97934.84
2022-10-01T14:44:03.655Z,97929.63
2022-10-01T14:46:37.011Z,97933.91
2022-10-01T14:49:05.345Z,97926.25
2022-10-01T14:51:33.378Z,97933.69
2022-10-01T14:54:01.614Z,97941.78
2022-10-01T14:56:29.967Z,97939.00
2022-10-01T14:59:04.490Z,97931.88
2022-10-01T15:01:32.584Z,97930.00
2022-10-01T15:04:05.465Z,97935.88
2022-10-01T15:06:43.093Z,97938.41
2022-10-01T15:09:16.687Z,97935.25
2022-10-01T15:11:49.131Z,97928.22
2022-10-01T15:14:25.753Z,97937.16
2022-10-01T15:16:53.942Z,97939.78
2022-10-01T15:19:23.976Z,97934.97
2022-10-01T15:21:57.400Z,97936.25
2022-10-01T15:24:48.132Z,97939.34
2022-10-01T15:27:20.993Z,97938.66
2022-10-01T15:29:56.714Z,97938.69
2022-10-01T15:32:26.146Z,97937.19
2022-10-01T15:34:56.874Z,97941.16
2022-10-01T15:37:31.199Z,97937.81
2022-10-01T15:40:00.995Z,97938.25
2022-10-01T15:42:34.317Z,97928.34
2022-10-01T15:45:24.812Z,97933.38
2022-10-01T15:47:56.899Z,97940.69
2022-10-01T15:50:37.771Z,97932.28
2022-10-01T15:53:20.320Z,97940.38
2022-10-01T15:55:52.091Z,97943.41
2022-10-01T15:58:29.951Z,97947.66
2022-10-01T16:01:11.775Z,97941.91
2022-10-01T16:03:51.644Z,97941.94
2022-10-01T16:06:36.070Z,97929.66
2022-10-01T16:09:16.686Z,97943.84
2022-10-01T16:12:19.085Z,97937.22
2022-10-01T16:15:26.011Z,97937.91
2022-10-01T16:18:03.060Z,97933.28
2022-10-01T16:20:36.765Z,97942.75
2022-10-01T16:23:32.810Z,97939.88
2022-10-01T16:26:07.639Z,97941.34
2022-10-01T16:28:36.593Z,97933.28
2022-10-01T16:31:08.381Z,97938.03
2022-10-01T16:33:36.408Z,97940.19
2022-10-01T16:36:11.564Z,97934.72
2022-10-01T16:38:39.602Z,97931.13
2022-10-01T16:41:10.671Z,97933.47
2022-10-01T16:43:38.845Z,97933.31
2022-10-01T16:46:07.031Z,97923.00
2022-10-01T16:48:35.090Z,97916.94
2022-10-01T16:51:03.115Z,97929.69
2022-10-01T16:53:31.141Z,97929.25
2022-10-01T16:55:59.224Z,97915.66
2022-10-01T16:58:27.278Z,97924.69
2022-10-01T17:00:58.206Z,97915.44
2022-10-01T17:03:26.220Z,97920.72
2022-10-01T17:05:57.097Z,97905.97
2022-10-01T17:08:25.175Z,97916.53
2022-10-01T17:10:59.207Z,97911.66
2022-10-01T17:13:29.055Z,97896.34
2022-10-01T17:15:57.374Z,97909.91
2022-10-01T17:18:28.205Z,97909.09
2022-10-01T17:20:57.116Z,97905.53
2022-10-01T17:23:25.156Z,97898.44
2022-10-01T17:25:53.244Z,97897.00
2022-10-01T17:28:21.767Z,97884.72
2022-10-01T17:30:50.557Z,97890.28
2022-10-01T17:33:21.202Z,97874.50
2022-10-01T17:35:51.266Z,97873.44
2022-10-01T17:38:22.621Z,97869.25
2022-10-01T17:40:56.674Z,97862.53
2022-10-01T17:43:24.957Z,97856.69
2022-10-01T17:45:58.214Z,97853.25
2022-10-01T17:48:27.577Z,97846.91
2022-10-01T17:51:06.879Z,97844.09
2022-10-01T17:53:42.157Z,97839.88
2022-10-01T17:56:16.489Z,97835.31
2022-10-01T17:58:46.072Z,97839.00
2022-10-01T18:01:25.840Z,97819.09
2022-10-01T18:03:55.623Z,97823.75
2022-10-01T18:06:25.294Z,97816.88
2022-10-01T18:08:55.911Z,97811.31
2022-10-01T18:11:26.772Z,97815.50
2022-10-01T18:14:00.570Z,97805.03
2022-10-01T18:16:29.240Z,97810.78
2022-10-01T18:21:52.068Z,97797.75
2022-10-01T18:24:20.084Z,97790.53
2022-10-01T18:26:48.428Z,97784.91
2022-10-01T18:29:23.346Z,97794.50
2022-10-01T18:32:01.559Z,97780.13
2022-10-01T18:34:51.005Z,97773.00
2022-10-01T18:37:37.599Z,97773.63
2022-10-01T18:40:18.160Z,97769.09
2022-10-01T18:43:10.825Z,97766.66
2022-10-01T18:45:54.119Z,97757.94
2022-10-01T18:48:28.158Z,97753.00
2022-10-01T18:51:14.215Z,97746.81
2022-10-01T18:54:00.129Z,97750.63
2022-10-01T18:56:34.526Z,97735.34
2022-10-01T18:59:16.378Z,97739.38
2022-10-01T19:02:16.898Z,97730.31
2022-10-01T19:05:05.328Z,97727.56
2022-10-01T19:07:51.133Z,97721.91
2022-10-01T19:10:33.015Z,97709.84
2022-10-01T19:13:09.488Z,97701.53
2022-10-01T19:15:48.781Z,97695.41
2022-10-01T19:18:44.536Z,97689.72
2022-10-01T19:21:34.013Z,97692.97
2022-10-01T19:24:11.250Z,97682.41
2022-10-01T19:26:58.474Z,97683.84
2022-10-01T19:29:38.484Z,97676.75
2022-10-01T19:32:20.531Z,97675.78
2022-10-01T19:35:06.804Z,97662.63
2022-10-01T19:37:42.328Z,97660.16
2022-10-01T19:40:16.591Z,97647.66
2022-10-01T19:42:55.384Z,97646.50
2022-10-01T19:45:45.901Z,97642.16
2022-10-01T19:48:19.864Z,97634.09
2022-10-01T19:50:51.253Z,97628.44
2022-10-01T19:53:27.055Z,97626.81
2022-10-01T19:55:56.648Z,97624.63
2022-10-01T19:58:25.256Z,97622.78
2022-10-01T20:00:57.053Z,97611.81
2022-10-01T20:03:34.053Z,97612.28
2022-10-01T20:06:20.619Z,97607.28
2022-10-01T20:08:51.695Z,97599.63
2022-10-01T20:11:31.415Z,97588.66
2022-10-01T20:14:17.804Z,97584.50
2022-10-01T20:16:52.197Z,97589.03
2022-10-01T20:19:38.803Z,97577.38
2022-10-01T20:22:30.833Z,97576.66
2022-10-01T20:24:58.871Z,97566.44
2022-10-01T20:27:50.367Z,97564.81
2022-10-01T20:30:21.013Z,97557.94
2022-10-01T20:33:07.305Z,97552.13
2022-10-01T20:35:45.421Z,97559.59
2022-10-01T20:38:28.252Z,97544.72
2022-10-01T20:40:59.216Z,97533.53
2022-10-01T20:43:44.248Z,97529.78
2022-10-01T20:46:40.836Z,97526.81
2022-10-01T20:49:16.162Z,97520.28
2022-10-01T20:52:18.889Z,97517.09
2022-10-01T20:54:51.825Z,97514.06
2022-10-01T20:57:42.121Z,97507.59
2022-10-01T21:00:19.562Z,97498.22
2022-10-01T21:03:16.107Z,97496.16
2022-10-01T21:05:56.028Z,97488.16
2022-10-01T21:08:51.924Z,97491.44
2022-10-01T21:11:34.239Z,97483.06
2022-10-01T21:14:06.862Z,97475.84
2022-10-01T21:16:55.842Z,97465.38
2022-10-01T21:20:06.069Z,97463.94
2022-10-01T21:23:06.101Z,97459.88
2022-10-01T21:25:54.263Z,97459.72
2022-10-01T21:28:43.193Z,97447.38
2022-10-01T21:31:41.429Z,97455.38
2022-10-01T21:34:30.301Z,97446.88
2022-10-01T21:37:14.119Z,97434.88
2022-10-01T21:40:08.570Z,97435.16
2022-10-01T21:42:51.009Z,97426.09
2022-10-01T21:46:04.988Z,97424.31
2022-10-01T21:49:09.613Z,97419.28
2022-10-01T21:52:04.329Z,97422.72
2022-10-01T21:54:46.949Z,97413.41
2022-10-01T21:57:46.893Z,97412.63
2022-10-01T22:00:17.999Z,97402.25
2022-10-01T22:03:06.154Z,97401.50
2022-10-01T22:06:07.979Z,97400.53
2022-10-01T22:08:45.945Z,97398.19
2022-10-01T22:11:20.813Z,97391.13
2022-10-01T22:13:59.853Z,97391.19
2022-10-01T22:16:33.540Z,97393.88
2022-10-01T22:19:12.053Z,97380.13
2022-10-01T22:21:46.094Z,97373.06
2022-10-01T22:24:21.360Z,97384.91
2022-10-01T22:27:06.962Z,97384.38
2022-10-01T22:29:43.352Z,97368.78
2022-10-01T22:32:17.843Z,97387.03
2022-10-01T22:34:53.120Z,97867.34
2022-10-01T22:37:57.143Z,97724.72
2022-10-01T22:40:35.357Z,97359.41
2022-10-01T22:43:11.481Z,97344.28
2022-10-01T22:46:05.291Z,97353.84
2022-10-01T22:48:39.202Z,97357.00
2022-10-01T22:51:37.372Z,97618.25
2022-10-01T22:54:26.349Z,97591.09
2022-10-01T22:57:20.051Z,97391.41
2022-10-01T22:59:56.925Z,97325.78
2022-10-01T23:03:05.362Z,97340.53
2022-10-01T23:05:36.061Z,97339.34
2022-10-01T23:08:22.275Z,97317.03
2022-10-01T23:11:03.992Z,97486.97
2022-10-01T23:13:53.254Z,97462.34
2022-10-01T23:16:40.054Z,97442.19
2022-10-01T23:19:22.765Z,97423.53
2022-10-01T23:22:15.657Z,97397.88
2022-10-01T23:25:15.960Z,97383.72
2022-10-01T23:28:22.444Z,97361.81
2022-10-01T23:31:19.355Z,97298.38
2022-10-01T23:34:15.411Z,97297.38
2022-10-01T23:36:49.884Z,97302.06
2022-10-01T23:39:31.941Z,97290.34
2022-10-01T23:42:14.724Z,97289.69
2022-10-01T23:44:56.733Z,97289.84
2022-10-01T23:47:35.420Z,97287.31
2022-10-01T23:50:06.594Z,97284.69
2022-10-01T23:52:51.682Z,97289.19
2022-10-01T23:55:32.227Z,97279.53
2022-10-01T23:58:05.836Z,97273.69
